Portada
METAR-TAF:

METAR-TAF

Aeroports :

Dehradun, Índia

latitud: 30-11-23N, longitud: 78-10-49E, altitud: 558 m

Observació

L'informe es va fer fa 33 minuts, a les 15:30 UTC
Vent 4 kt del Est/Nord-Est
Temperatura 28°C
Humitat 100%
Pressió 998 hPa
Visibilitat: 4000 m
Núvols disperses a una alçada de 2000 ft
boirina,

METAR: VIDN 251530Z 07004KT 4000 BR SCT020 28/28 Q0998 NOSIG

Hora: 21:33 (16:03 UTC)

Pronòstic

L'informe es va fer fa 5 hores i 3 minuts, a les 11:00 UTC
Pronòstic vàlid del 25 a les 12 UTC al 25 a les 21 UTC
Vent 4 kt del Sud/Sud-Oest
Visibilitat: 3000 m
Escasses núvols a una alçada de 2000 ft
Cel ennuvolat a una alçada de 3000 ft
Cel cobert a una alçada de 6000 ft
boirina, pluja
Temporalment
l' 25 a les 15 UTC al 25 a les 18 UTC
Visibilitat: 1500 m
Escasses núvols a una alçada de 3500 ft, Cumulonimbus.
tempesta, pluja,

TAF: VIDN 251100Z 2512/2521 20004KT 3000 BR -RA FEW020 BKN030 OVC060 TEMPO 2515/2518 1500 TSRA FEW035CB

Observacions i pronòstics meteorològics de més de 4000 aeroports (METAR i TAF).

Les estacions disponibles són els punts grocs i vermells al mapa.

Posi el ratolí al punt desitjat per veure el nom de l'estació.

Feu clic per veure les observacions i els pronòstics meteorològics.

Per canviar el mapa: feu clic els botons verds amb una creu de color negre per apropar; al botó verd amb un guió per allunyar la imatge; o en les fletxes verdes per a mapes adjacents.


METAR-TAF: